Time;durP1;ratioP1;P1;durP2;ratioP2;P2;SDS_P1;SDS_P2;PMS_P1;PMS_P2;Temp;Humidity;BMP_temperature;BMP_pressure;BME280_temperature;BME280_humidity;BME280_pressure;Samples;Min_cycle;Max_cycle;Signal;HPM_P1;HPM_P2
2023/05/29 00:00:09;;;;;;;13.80;9.13;;;;;;;15.13;96.60;97527.03;10370237;28;20068;-52
2023/05/29 00:05:08;;;;;;;14.48;9.35;;;;;;;15.21;96.28;97538.13;10367115;28;20274;-52
2023/05/29 00:10:09;;;;;;;13.98;8.93;;;;;;;15.25;96.72;97525.88;10366865;28;20158;-52
2023/05/29 00:21:03;;;;;;;17.40;9.25;;;;;;;15.37;96.75;97527.34;10367855;28;20874;-51
2023/05/29 00:26:02;;;;;;;14.05;8.52;;;;;;;15.45;96.12;97517.53;10367122;28;20067;-52
2023/05/29 00:31:02;;;;;;;16.95;9.77;;;;;;;15.44;95.65;97518.44;10359925;28;20156;-52
2023/05/29 00:36:01;;;;;;;16.50;9.35;;;;;;;15.48;95.51;97511.38;10367526;28;20423;-49
2023/05/29 00:41:00;;;;;;;14.48;9.32;;;;;;;15.50;95.82;97513.06;10366863;28;20076;-51
2023/05/29 00:45:59;;;;;;;17.55;8.93;;;;;;;15.50;95.49;97525.28;10365131;28;20044;-50
2023/05/29 00:50:59;;;;;;;14.80;9.50;;;;;;;15.42;95.05;97520.25;10366197;28;20128;-51
2023/05/29 00:55:59;;;;;;;15.85;9.52;;;;;;;15.35;95.55;97505.59;10365557;28;20071;-51
2023/05/29 01:00:58;;;;;;;17.40;10.82;;;;;;;15.09;96.69;97519.28;10365669;28;20645;-52
2023/05/29 01:06:03;;;;;;;16.42;10.65;;;;;;;15.03;96.71;97500.22;10366781;28;20095;-52
2023/05/29 01:11:17;;;;;;;18.33;11.82;;;;;;;15.15;96.49;97509.53;10347279;28;20076;-52
2023/05/29 01:16:48;;;;;;;21.25;13.45;;;;;;;15.12;96.63;97507.00;10362570;28;20125;-49
2023/05/29 01:22:09;;;;;;;25.10;13.38;;;;;;;15.10;96.55;97500.94;10365366;28;20452;-51
2023/05/29 01:27:10;;;;;;;20.75;11.18;;;;;;;15.05;97.21;97502.78;10365745;28;20084;-51
2023/05/29 01:32:10;;;;;;;21.15;11.32;;;;;;;15.05;97.02;97497.56;10364846;28;20072;-51
2023/05/29 01:37:09;;;;;;;18.85;11.18;;;;;;;15.11;97.13;97500.06;10367205;28;20060;-53
2023/05/29 01:42:08;;;;;;;17.77;11.43;;;;;;;15.13;96.91;97497.38;10381277;28;20051;-52
2023/05/29 01:47:08;;;;;;;17.20;10.68;;;;;;;15.04;97.33;97501.94;10382138;28;20059;-51
2023/05/29 01:52:07;;;;;;;15.32;10.77;;;;;;;15.01;97.48;97495.91;10379154;28;20520;-51
2023/05/29 01:57:07;;;;;;;15.38;10.63;;;;;;;14.94;97.60;97487.34;10380438;28;20576;-51
2023/05/29 02:02:07;;;;;;;15.77;10.70;;;;;;;14.90;97.84;97482.25;10376366;28;20430;-53
2023/05/29 02:07:06;;;;;;;14.70;11.18;;;;;;;14.87;97.65;97458.78;10371938;28;20079;-49
2023/05/29 02:12:07;;;;;;;18.50;11.63;;;;;;;15.09;97.24;97486.16;10371610;28;20045;-51
2023/05/29 02:17:05;;;;;;;15.57;11.07;;;;;;;15.14;97.44;97494.75;10371134;28;20076;-52
2023/05/29 02:22:05;;;;;;;17.60;10.98;;;;;;;15.16;96.94;97474.66;10371883;28;20063;-49
2023/05/29 02:27:04;;;;;;;17.67;12.32;;;;;;;15.26;97.22;97483.13;10371265;28;20487;-50
2023/05/29 02:32:04;;;;;;;16.42;11.05;;;;;;;15.34;96.78;97480.34;10371357;28;20064;-51
2023/05/29 02:37:03;;;;;;;19.30;12.52;;;;;;;15.35;96.42;97489.91;10369145;28;20091;-51
2023/05/29 02:42:03;;;;;;;17.42;11.05;;;;;;;15.32;96.82;97485.63;10371226;28;20558;-50
2023/05/29 02:47:01;;;;;;;16.98;11.25;;;;;;;15.31;96.92;97493.47;10371040;28;20500;-53
2023/05/29 02:52:00;;;;;;;19.75;10.90;;;;;;;15.28;96.75;97493.56;10369006;28;20492;-50
2023/05/29 02:56:59;;;;;;;;;;;;;;;15.26;97.21;97485.75;10371704;28;20051;-51
2023/05/29 03:01:58;;;;;;;17.50;10.63;;;;;;;15.23;96.91;97480.59;10370670;28;19912;-52
2023/05/29 03:06:57;;;;;;;21.50;11.55;;;;;;;15.20;97.36;97480.66;10372483;28;20041;-52
2023/05/29 03:11:56;;;;;;;16.23;11.68;;;;;;;15.21;97.69;97483.25;10377786;28;20028;-52
2023/05/29 03:16:56;;;;;;;18.85;11.40;;;;;;;15.23;97.16;97470.16;10375148;28;20079;-51
2023/05/29 03:21:55;;;;;;;17.20;10.85;;;;;;;15.17;97.19;97484.22;10379964;28;20060;-52
2023/05/29 03:26:54;;;;;;;16.42;11.65;;;;;;;15.07;97.77;97480.09;10377918;28;20028;-51
2023/05/29 03:31:53;;;;;;;17.75;11.77;;;;;;;15.23;97.27;97505.00;10367937;28;20124;-52
2023/05/29 03:36:52;;;;;;;23.10;11.80;;;;;;;15.28;97.64;97502.25;10367574;28;20067;-50
2023/05/29 03:41:51;;;;;;;22.13;11.77;;;;;;;15.37;97.30;97507.28;10367501;28;20468;-52
2023/05/29 03:46:51;;;;;;;17.33;10.85;;;;;;;15.42;96.85;97515.84;10368190;28;20419;-51
2023/05/29 03:51:50;;;;;;;20.50;12.38;;;;;;;15.43;96.63;97517.56;10368224;28;20503;-52
2023/05/29 03:56:49;;;;;;;18.70;12.20;;;;;;;15.50;96.34;97517.44;10367970;28;20084;-51
2023/05/29 04:01:48;;;;;;;20.23;11.95;;;;;;;15.55;96.43;97513.81;10367674;28;20021;-52
2023/05/29 04:06:47;;;;;;;;;;;;;;;15.60;95.69;97517.19;10367255;28;20045;-51
2023/05/29 04:11:46;;;;;;;15.90;11.87;;;;;;;15.62;95.65;97514.50;10366747;28;19916;-52
2023/05/29 04:16:45;;;;;;;16.27;11.48;;;;;;;15.62;96.35;97523.22;10366425;28;20052;-50
2023/05/29 04:21:44;;;;;;;18.92;11.73;;;;;;;15.65;96.25;97532.75;10369514;28;20036;-52
2023/05/29 04:26:43;;;;;;;16.67;12.07;;;;;;;15.72;96.65;97530.84;10366702;28;20068;-52
2023/05/29 04:31:42;;;;;;;27.17;12.38;;;;;;;15.73;96.50;97528.19;10368061;28;20091;-52
2023/05/29 04:36:43;;;;;;;19.23;12.45;;;;;;;15.75;96.16;97525.53;10366565;28;20118;-49
2023/05/29 04:41:42;;;;;;;18.27;12.65;;;;;;;15.67;95.83;97533.59;10366204;28;20290;-52
2023/05/29 04:46:44;;;;;;;18.02;12.60;;;;;;;15.70;96.17;97536.13;10367673;28;20067;-53
2023/05/29 04:51:42;;;;;;;22.38;13.02;;;;;;;15.80;96.02;97544.63;10365437;28;20147;-50
2023/05/29 04:56:42;;;;;;;24.70;12.05;;;;;;;15.80;95.70;97544.63;10359558;28;20041;-50
2023/05/29 05:01:43;;;;;;;53.88;14.32;;;;;;;15.88;95.50;97559.22;10364589;28;20136;-53
2023/05/29 05:06:43;;;;;;;47.80;13.60;;;;;;;15.85;95.19;97561.91;10367265;28;20502;-50
2023/05/29 05:11:43;;;;;;;18.02;11.38;;;;;;;15.82;95.61;97569.00;10357903;28;20128;-53
2023/05/29 05:16:42;;;;;;;20.92;10.43;;;;;;;15.51;97.18;97581.94;10362363;28;20080;-50
2023/05/29 05:21:40;;;;;;;16.27;10.13;;;;;;;15.45;97.92;97580.28;10364147;28;20029;-52
2023/05/29 05:26:39;;;;;;;;;;;;;;;15.48;98.21;97588.06;10364895;28;20043;-52
2023/05/29 05:31:38;;;;;;;12.80;8.73;;;;;;;15.62;98.44;97582.50;10365134;28;20383;-52
2023/05/29 05:36:37;;;;;;;15.18;8.68;;;;;;;15.74;98.27;97591.81;10364293;28;20431;-49
2023/05/29 05:41:36;;;;;;;11.27;8.10;;;;;;;15.82;97.17;97585.53;10358395;28;20076;-52
2023/05/29 05:46:35;;;;;;;17.60;10.18;;;;;;;15.90;96.81;97571.41;10341444;28;20156;-52
2023/05/29 05:51:35;;;;;;;13.57;9.20;;;;;;;16.16;96.09;97594.28;10365049;28;20148;-51
2023/05/29 05:56:34;;;;;;;13.05;8.50;;;;;;;16.35;94.33;97587.69;10363910;28;20079;-52
2023/05/29 06:01:33;;;;;;;10.25;8.20;;;;;;;16.22;93.92;97581.91;10365048;28;20064;-52
2023/05/29 06:06:32;;;;;;;10.35;8.38;;;;;;;16.33;94.17;97575.53;10361103;28;20080;-52
2023/05/29 06:11:31;;;;;;;9.68;7.90;;;;;;;16.64;94.19;97550.19;10359431;28;20180;-51
2023/05/29 06:16:30;;;;;;;9.85;7.47;;;;;;;17.21;91.66;97580.00;10360686;28;20116;-50
2023/05/29 06:21:29;;;;;;;9.80;7.18;;;;;;;17.72;89.18;97581.88;10359761;28;20053;-53
2023/05/29 06:26:28;;;;;;;8.10;7.00;;;;;;;18.05;87.11;97573.00;10373254;28;20067;-53
2023/05/29 06:31:28;;;;;;;8.20;5.32;;;;;;;18.22;84.60;97575.03;10364271;28;20028;-53
2023/05/29 06:36:27;;;;;;;7.68;5.03;;;;;;;18.14;84.03;97581.41;10371637;28;20075;-51
2023/05/29 06:41:26;;;;;;;6.25;4.57;;;;;;;18.34;85.49;97564.97;10366419;28;20044;-50
2023/05/29 06:46:25;;;;;;;7.72;4.40;;;;;;;18.69;83.47;97583.91;10373194;28;20091;-52
2023/05/29 06:51:24;;;;;;;7.03;5.38;;;;;;;19.02;81.11;97575.69;10374287;28;20037;-50
2023/05/29 06:56:23;;;;;;;7.40;3.90;;;;;;;19.13;79.47;97577.88;10368174;28;20080;-53
2023/05/29 07:01:23;;;;;;;3.85;3.22;;;;;;;19.55;79.60;97571.84;10372172;28;20453;-53
2023/05/29 07:06:22;;;;;;;4.85;2.95;;;;;;;19.72;74.73;97514.16;10371496;28;20076;-52
2023/05/29 07:11:21;;;;;;;3.53;3.00;;;;;;;20.10;74.23;97568.78;10371953;28;20041;-52
2023/05/29 07:16:20;;;;;;;5.15;3.33;;;;;;;20.60;72.81;97573.66;10371146;28;20126;-51
2023/05/29 07:21:20;;;;;;;3.63;2.75;;;;;;;20.74;68.87;97573.03;10374539;28;20064;-52
2023/05/29 07:26:19;;;;;;;6.03;3.05;;;;;;;21.01;70.78;97577.06;10370356;28;20093;-53
2023/05/29 07:31:18;;;;;;;4.60;3.30;;;;;;;21.31;69.37;97569.53;10372421;28;20078;-51
2023/05/29 07:36:18;;;;;;;4.95;3.10;;;;;;;21.33;66.54;97570.31;10371149;28;20041;-52
2023/05/29 07:41:17;;;;;;;6.60;3.67;;;;;;;21.33;66.19;97572.09;10369246;28;20080;-53
2023/05/29 07:46:16;;;;;;;4.90;3.63;;;;;;;20.81;67.70;97580.59;10360829;28;20128;-53
2023/05/29 07:51:15;;;;;;;4.53;3.40;;;;;;;20.75;68.09;97573.00;10365599;28;20135;-50
2023/05/29 07:56:14;;;;;;;4.95;3.28;;;;;;;21.01;67.39;97581.47;10356415;28;20133;-53
2023/05/29 08:01:13;;;;;;;5.65;4.13;;;;;;;20.13;68.88;97577.41;10347047;28;20036;-51
2023/05/29 08:06:12;;;;;;;9.07;4.63;;;;;;;19.41;73.51;97583.78;10364497;28;20171;-52
2023/05/29 08:11:11;;;;;;;7.63;4.53;;;;;;;19.33;74.61;97585.88;10370897;28;20084;-53
2023/05/29 08:16:10;;;;;;;11.85;5.10;;;;;;;18.95;75.32;97577.69;10365010;28;20052;-51
2023/05/29 08:21:11;;;;;;;6.78;5.10;;;;;;;18.80;76.84;97586.97;10368834;28;20056;-51
2023/05/29 08:26:10;;;;;;;7.88;5.38;;;;;;;18.86;77.00;97588.53;10364680;28;20071;-52
2023/05/29 08:31:09;;;;;;;8.50;5.75;;;;;;;19.05;77.22;97591.34;10368731;28;20079;-52
2023/05/29 08:36:11;;;;;;;12.02;5.47;;;;;;;18.84;77.89;97589.50;10366463;28;20027;-52
2023/05/29 08:41:25;;;;;;;8.63;5.35;;;;;;;19.01;76.46;97590.56;10366866;28;20555;-50
2023/05/29 08:46:24;;;;;;;9.82;5.20;;;;;;;19.10;75.64;97583.28;10367042;28;20085;-52
2023/05/29 08:51:31;;;;;;;8.23;6.05;;;;;;;19.77;72.81;97580.66;10357295;28;20152;-50
2023/05/29 08:56:31;;;;;;;8.15;5.50;;;;;;;20.12;72.20;97572.19;10367271;28;20065;-51
2023/05/29 09:01:31;;;;;;;8.18;5.47;;;;;;;20.14;69.75;97552.78;10369163;28;20526;-50
2023/05/29 09:06:30;;;;;;;6.82;6.10;;;;;;;20.77;67.76;97571.09;10369174;28;20060;-52
2023/05/29 09:11:29;;;;;;;8.55;5.93;;;;;;;21.35;65.47;97554.41;10357620;28;20076;-52
2023/05/29 09:16:28;;;;;;;8.45;5.55;;;;;;;21.61;62.23;97557.56;10362158;28;20091;-50
2023/05/29 09:21:29;;;;;;;6.32;5.15;;;;;;;22.02;59.71;97547.63;10361642;28;20031;-53
2023/05/29 09:26:28;;;;;;;7.13;5.00;;;;;;;22.11;58.96;97549.81;10368425;28;20076;-53
2023/05/29 09:31:27;;;;;;;8.85;6.00;;;;;;;22.41;60.93;97549.16;10368495;28;20120;-53
2023/05/29 09:36:26;;;;;;;9.95;5.97;;;;;;;21.55;61.81;97542.91;10368322;28;20045;-52
2023/05/29 09:41:25;;;;;;;9.05;6.00;;;;;;;20.94;63.20;97538.72;10368671;28;20119;-53
2023/05/29 09:46:24;;;;;;;10.80;6.43;;;;;;;21.28;63.69;97538.00;10366907;28;20076;-53
2023/05/29 09:51:24;;;;;;;7.90;6.22;;;;;;;21.58;62.49;97528.69;10367331;28;20123;-53
2023/05/29 09:56:25;;;;;;;8.48;6.57;;;;;;;21.46;60.97;97520.44;10368400;28;20072;-53
2023/05/29 10:01:25;;;;;;;8.57;6.43;;;;;;;21.26;61.90;97528.44;10372361;28;20068;-53
2023/05/29 10:06:24;;;;;;;8.15;6.13;;;;;;;21.11;63.60;97508.91;10375671;28;20665;-52
2023/05/29 10:11:27;;;;;;;9.32;7.00;;;;;;;21.34;62.27;97513.13;10374315;28;20117;-51
2023/05/29 10:16:27;;;;;;;8.85;6.43;;;;;;;21.76;61.30;97504.00;10373716;28;20068;-52
2023/05/29 10:21:28;;;;;;;11.20;6.05;;;;;;;22.63;57.13;97514.50;10370334;28;20060;-53
2023/05/29 10:26:29;;;;;;;8.70;5.75;;;;;;;22.29;56.14;97507.50;10370531;28;20069;-52
2023/05/29 10:31:39;;;;;;;8.57;6.20;;;;;;;22.29;56.39;97508.34;10370279;28;20120;-50
2023/05/29 10:36:45;;;;;;;10.38;6.50;;;;;;;21.71;58.84;97513.94;10374020;28;20489;-51
2023/05/29 10:41:45;;;;;;;8.60;7.03;;;;;;;21.65;62.16;97509.81;10372596;28;20064;-52
2023/05/29 10:46:47;;;;;;;8.57;7.63;;;;;;;20.99;68.14;97528.81;10344880;28;20124;-52
2023/05/29 10:51:48;;;;;;;11.77;9.23;;;;;;;19.82;77.35;97536.53;10371134;28;20533;-50
2023/05/29 10:57:03;;;;;;;18.08;11.05;;;;;;;18.31;84.62;97545.81;10364867;28;20504;-53
2023/05/29 11:02:04;;;;;;;15.45;11.25;;;;;;;17.40;94.52;97540.09;10355306;28;20791;-53
2023/05/29 11:07:06;;;;;;;17.95;13.82;;;;;;;17.06;97.30;97539.38;10370750;28;20079;-52
2023/05/29 11:12:35;;;;;;;14.68;10.68;;;;;;;17.34;98.16;97528.03;10364841;28;20120;-54
2023/05/29 11:17:37;;;;;;;13.50;10.88;;;;;;;17.63;96.88;97523.59;10367535;28;20073;-52
2023/05/29 11:22:59;;;;;;;9.73;8.35;;;;;;;18.30;96.52;97523.94;10360895;28;20117;-52
2023/05/29 11:27:58;;;;;;;11.73;9.32;;;;;;;18.79;88.68;97516.91;10343957;28;20136;-51
2023/05/29 11:33:01;;;;;;;10.23;9.13;;;;;;;19.61;92.67;97519.00;10342380;28;20032;-52
2023/05/29 11:38:02;;;;;;;11.73;9.05;;;;;;;19.26;83.49;97489.69;10337909;28;20103;-52
2023/05/29 11:43:01;;;;;;;12.35;9.95;;;;;;;19.73;84.06;97510.59;10352677;28;20135;-51
2023/05/29 11:48:03;;;;;;;12.25;9.60;;;;;;;20.31;84.22;97522.22;10358752;28;20032;-51
2023/05/29 11:53:01;;;;;;;11.90;8.52;;;;;;;20.83;82.95;97498.78;10350836;28;20120;-54
2023/05/29 11:58:04;;;;;;;10.18;7.68;;;;;;;20.80;72.52;97493.66;10347589;28;20033;-52
2023/05/29 12:03:06;;;;;;;11.25;8.20;;;;;;;20.54;73.24;97503.63;10351570;28;20057;-51
2023/05/29 12:08:05;;;;;;;14.30;9.02;;;;;;;19.46;81.95;97496.75;10350306;28;20080;-49
2023/05/29 12:13:04;;;;;;;15.45;11.25;;;;;;;17.81;96.20;97520.41;10354350;28;20508;-51
2023/05/29 12:18:03;;;;;;;20.02;13.38;;;;;;;16.40;100.00;97517.72;10360808;28;20524;-52
2023/05/29 12:23:02;;;;;;;23.75;15.60;;;;;;;15.89;100.00;97528.69;10341674;28;20073;-51
2023/05/29 12:28:01;;;;;;;22.27;14.77;;;;;;;15.59;100.00;97518.06;10351915;28;20116;-52
2023/05/29 12:33:01;;;;;;;21.92;15.30;;;;;;;15.75;100.00;97510.69;10356149;28;20433;-51
2023/05/29 12:38:04;;;;;;;12.45;9.55;;;;;;;15.82;100.00;97520.13;10353468;28;20779;-50
2023/05/29 12:43:06;;;;;;;14.52;9.38;;;;;;;15.76;100.00;97537.69;10349329;28;20608;-48
2023/05/29 12:48:06;;;;;;;13.98;7.13;;;;;;;15.84;100.00;97552.34;10344315;28;20056;-50
2023/05/29 12:53:10;;;;;;;8.52;5.63;;;;;;;15.74;100.00;97524.69;10339066;28;20124;-50
2023/05/29 12:58:11;;;;;;;12.05;7.55;;;;;;;15.85;100.00;97546.19;10341229;28;20121;-49
2023/05/29 13:03:11;;;;;;;10.23;6.85;;;;;;;16.24;100.00;97546.06;10345780;28;20123;-52
2023/05/29 13:08:10;;;;;;;11.80;6.97;;;;;;;16.29;100.00;97546.78;10342007;28;20152;-52
2023/05/29 13:13:10;;;;;;;7.93;4.85;;;;;;;16.59;100.00;97540.75;10342381;28;20187;-51
2023/05/29 13:18:09;;;;;;;8.68;4.45;;;;;;;16.72;100.00;97534.25;10356542;28;20080;-51
2023/05/29 13:23:08;;;;;;;5.85;3.80;;;;;;;16.84;100.00;97541.81;10341793;28;20492;-52
2023/05/29 13:28:07;;;;;;;5.25;3.90;;;;;;;16.28;100.00;97531.16;10343964;28;20116;-51
2023/05/29 13:33:06;;;;;;;5.05;3.35;;;;;;;16.33;100.00;97534.50;10351239;28;20060;-51
2023/05/29 13:38:05;;;;;;;4.38;3.05;;;;;;;16.50;100.00;97534.88;10365327;28;20140;-49
2023/05/29 13:43:04;;;;;;;4.88;3.28;;;;;;;16.15;100.00;97533.22;10336580;28;20060;-53
2023/05/29 13:48:03;;;;;;;5.60;3.35;;;;;;;15.77;100.00;97514.13;10327760;28;20048;-50
2023/05/29 13:53:02;;;;;;;3.45;2.53;;;;;;;16.18;100.00;97522.66;10327027;28;20104;-50
2023/05/29 13:58:01;;;;;;;4.18;2.70;;;;;;;16.54;100.00;97511.22;10331614;28;20028;-51
2023/05/29 14:03:00;;;;;;;4.82;2.95;;;;;;;16.79;100.00;97508.72;10316804;28;20372;-52
2023/05/29 14:07:59;;;;;;;5.82;2.90;;;;;;;16.78;100.00;97510.50;10305964;28;20021;-52
2023/05/29 14:12:58;;;;;;;4.07;2.53;;;;;;;17.45;100.00;97506.69;10316578;28;20113;-50
2023/05/29 14:17:57;;;;;;;4.45;2.67;;;;;;;17.53;100.00;97502.06;10312268;28;20140;-51
2023/05/29 14:22:56;;;;;;;3.67;2.45;;;;;;;17.74;100.00;97506.59;10324236;28;20025;-52
2023/05/29 14:27:55;;;;;;;5.60;3.08;;;;;;;17.80;100.00;97513.44;10335387;28;20492;-51
2023/05/29 14:32:55;;;;;;;4.93;3.00;;;;;;;17.96;100.00;97503.25;10303967;28;20033;-51
2023/05/29 14:37:55;;;;;;;4.55;2.95;;;;;;;18.25;100.00;97489.13;10332686;28;20091;-50
2023/05/29 14:42:53;;;;;;;4.82;3.15;;;;;;;18.41;100.00;97494.69;10361348;28;20060;-53
2023/05/29 14:47:52;;;;;;;3.30;3.00;;;;;;;18.93;100.00;97498.00;10354374;28;20031;-52
2023/05/29 14:52:51;;;;;;;5.70;2.90;;;;;;;19.38;100.00;97488.34;10353072;28;20040;-53
2023/05/29 14:57:50;;;;;;;3.60;2.55;;;;;;;19.24;98.73;97486.25;10371805;28;20583;-52
2023/05/29 15:02:49;;;;;;;5.00;2.90;;;;;;;19.17;97.84;97488.28;10366836;28;20662;-52
2023/05/29 15:07:48;;;;;;;4.65;3.45;;;;;;;19.15;95.95;97497.16;10365789;28;20021;-52
2023/05/29 15:12:47;;;;;;;6.28;3.67;;;;;;;19.19;100.00;97490.84;10357875;28;20057;-52
2023/05/29 15:17:50;;;;;;;4.22;2.70;;;;;;;19.70;100.00;97492.31;10362138;28;20126;-54
2023/05/29 15:22:50;;;;;;;5.28;2.35;;;;;;;19.77;90.30;97467.44;10374910;28;20119;-54
2023/05/29 15:27:49;;;;;;;4.90;2.80;;;;;;;19.75;92.47;97477.16;10366047;28;20060;-52
2023/05/29 15:32:48;;;;;;;4.78;2.70;;;;;;;19.81;97.13;97491.84;10362743;28;20020;-53
2023/05/29 15:37:47;;;;;;;4.47;2.70;;;;;;;19.76;84.81;97493.81;10371118;28;20016;-53
2023/05/29 15:42:46;;;;;;;3.30;2.50;;;;;;;19.32;88.57;97493.84;10334124;28;20544;-53
2023/05/29 15:47:45;;;;;;;4.93;3.03;;;;;;;19.25;90.21;97503.75;10318389;28;20120;-52
2023/05/29 15:52:44;;;;;;;5.32;3.03;;;;;;;19.29;91.19;97505.34;10315690;28;20584;-52
2023/05/29 15:57:43;;;;;;;5.28;2.97;;;;;;;19.34;88.00;97466.53;10316118;28;20575;-51
2023/05/29 16:02:42;;;;;;;5.30;3.10;;;;;;;19.70;89.84;97516.00;10326423;28;20061;-50
2023/05/29 16:07:47;;;;;;;6.03;3.30;;;;;;;19.84;82.76;97497.00;10323645;28;20068;-53
2023/05/29 16:12:48;;;;;;;4.07;3.03;;;;;;;19.51;83.87;97501.84;10292118;28;20136;-52
2023/05/29 16:17:47;;;;;;;4.78;3.63;;;;;;;19.32;83.03;97478.94;10326213;28;20092;-51
2023/05/29 16:22:46;;;;;;;5.55;3.53;;;;;;;19.52;88.99;97509.69;10317989;28;20389;-52
2023/05/29 16:27:45;;;;;;;4.18;2.88;;;;;;;19.70;87.14;97509.84;10314144;28;20041;-52
2023/05/29 16:32:44;;;;;;;6.05;3.58;;;;;;;19.61;84.11;97526.91;10320311;28;20147;-52
2023/05/29 16:37:43;;;;;;;5.15;3.50;;;;;;;19.70;90.13;97520.38;10321324;28;20120;-51
2023/05/29 16:42:42;;;;;;;4.20;3.33;;;;;;;19.83;92.32;97505.78;10319786;28;20580;-51
2023/05/29 16:47:41;;;;;;;4.75;3.40;;;;;;;19.76;81.30;97499.94;10333967;28;20556;-53
2023/05/29 16:52:40;;;;;;;5.55;4.10;;;;;;;19.79;86.85;97491.94;10332459;28;20532;-52
2023/05/29 16:57:42;;;;;;;9.75;5.10;;;;;;;20.05;89.18;97487.31;10317519;28;20548;-51
2023/05/29 17:02:41;;;;;;;8.70;5.20;;;;;;;20.17;86.92;97486.78;10312837;28;20452;-52
2023/05/29 17:07:40;;;;;;;10.00;5.30;;;;;;;19.92;83.19;97486.13;10312363;28;20460;-52
2023/05/29 17:12:39;;;;;;;9.65;5.82;;;;;;;19.64;88.04;97451.28;10323246;28;20029;-52
2023/05/29 17:17:38;;;;;;;9.70;6.07;;;;;;;19.70;86.71;97487.03;10326708;28;20456;-51
2023/05/29 17:22:37;;;;;;;14.02;7.43;;;;;;;19.52;88.72;97485.16;10332710;28;20087;-52
2023/05/29 17:27:36;;;;;;;13.40;7.63;;;;;;;19.28;88.00;97485.22;10329485;28;20048;-53
2023/05/29 17:32:35;;;;;;;13.10;8.35;;;;;;;18.95;90.62;97490.91;10330197;28;20040;-53
2023/05/29 17:37:34;;;;;;;19.80;8.82;;;;;;;18.72;92.35;97498.81;10325228;28;20116;-53
2023/05/29 17:42:33;;;;;;;14.30;8.23;;;;;;;18.19;92.23;97469.16;10348746;28;20060;-52
2023/05/29 17:47:32;;;;;;;13.88;7.90;;;;;;;18.27;93.15;97529.31;10372998;28;20040;-52
2023/05/29 17:52:31;;;;;;;17.05;9.38;;;;;;;18.00;94.02;97532.91;10371696;28;20476;-52
2023/05/29 17:57:30;;;;;;;22.17;12.00;;;;;;;17.82;93.78;97531.75;10371995;28;20451;-54
2023/05/29 18:02:29;;;;;;;16.45;9.85;;;;;;;17.62;95.29;97535.88;10372065;28;20741;-53
2023/05/29 18:07:28;;;;;;;16.08;8.93;;;;;;;17.40;95.44;97551.44;10370609;28;20036;-53
2023/05/29 18:12:27;;;;;;;17.65;9.63;;;;;;;17.18;96.30;97563.50;10352323;28;20049;-53
2023/05/29 18:17:27;;;;;;;14.27;9.10;;;;;;;16.99;96.16;97571.06;10369774;28;20112;-53
2023/05/29 18:22:26;;;;;;;13.50;8.77;;;;;;;16.82;97.17;97580.28;10378286;28;20068;-54
2023/05/29 18:27:25;;;;;;;18.02;9.77;;;;;;;16.60;97.32;97579.13;10378740;28;20039;-54
2023/05/29 18:32:23;;;;;;;17.60;9.63;;;;;;;16.46;97.82;97583.00;10379508;28;20111;-53
2023/05/29 18:37:22;;;;;;;14.45;9.75;;;;;;;16.33;98.68;97583.41;10379191;28;20128;-50
2023/05/29 18:42:22;;;;;;;14.80;10.18;;;;;;;16.20;98.78;97581.06;10379709;28;20048;-53
2023/05/29 18:47:20;;;;;;;14.88;8.82;;;;;;;16.11;99.74;97583.09;10379454;28;20083;-53
2023/05/29 18:52:21;;;;;;;14.13;8.70;;;;;;;16.04;100.00;97598.06;10374019;28;20037;-51
2023/05/29 18:57:20;;;;;;;23.48;9.88;;;;;;;16.01;100.00;97601.63;10369547;28;20135;-52
2023/05/29 19:02:19;;;;;;;13.52;9.30;;;;;;;15.99;100.00;97613.03;10376299;28;20039;-53
2023/05/29 19:07:18;;;;;;;11.95;8.38;;;;;;;15.97;100.00;97610.47;10378185;28;20028;-51
2023/05/29 19:12:17;;;;;;;13.98;9.55;;;;;;;16.00;100.00;97613.03;10377371;28;20610;-52
2023/05/29 19:17:17;;;;;;;12.65;8.23;;;;;;;16.06;100.00;97617.22;10376367;28;20442;-52
2023/05/29 19:22:16;;;;;;;12.57;9.15;;;;;;;16.10;100.00;97618.88;10362054;28;20121;-53
2023/05/29 19:27:15;;;;;;;12.77;9.90;;;;;;;16.08;100.00;97621.53;10368548;28;20025;-51
2023/05/29 19:32:18;;;;;;;17.88;10.73;;;;;;;16.06;100.00;97631.16;10375425;28;20088;-54
2023/05/29 19:37:17;;;;;;;17.42;12.32;;;;;;;16.08;100.00;97632.00;10373519;28;20518;-50
2023/05/29 19:42:18;;;;;;;21.33;14.88;;;;;;;16.07;100.00;97638.13;10372200;28;20568;-51
2023/05/29 19:47:17;;;;;;;18.00;13.25;;;;;;;15.87;100.00;97616.81;10370820;28;20586;-50
2023/05/29 19:52:17;;;;;;;25.50;15.52;;;;;;;15.94;100.00;97636.72;10371075;28;20183;-51
2023/05/29 19:57:16;;;;;;;20.90;12.20;;;;;;;15.90;100.00;97634.22;10374716;28;20072;-52
2023/05/29 20:02:15;;;;;;;16.73;12.88;;;;;;;15.87;100.00;97632.53;10374725;28;20070;-55
2023/05/29 20:07:14;;;;;;;34.70;14.48;;;;;;;15.82;100.00;97634.41;10370819;28;20035;-49
2023/05/29 20:12:13;;;;;;;;;;;;;;;15.75;100.00;97630.19;10368579;28;20037;-49
2023/05/29 20:17:12;;;;;;;27.43;16.50;;;;;;;15.60;100.00;97611.34;10368821;28;20319;-51
2023/05/29 20:22:11;;;;;;;26.95;16.83;;;;;;;15.60;100.00;97624.41;10372737;28;20028;-52
2023/05/29 20:27:09;;;;;;;30.80;16.83;;;;;;;15.56;100.00;97625.38;10371847;28;20041;-55
2023/05/29 20:32:08;;;;;;;27.60;17.42;;;;;;;15.46;100.00;97632.56;10371874;28;20031;-53
2023/05/29 20:37:07;;;;;;;27.27;17.05;;;;;;;15.41;100.00;97625.72;10367512;28;20039;-50
2023/05/29 20:42:08;;;;;;;;;;;;;;;15.24;100.00;97623.47;10367233;28;20044;-52
2023/05/29 20:47:07;;;;;;;28.95;20.65;;;;;;;15.21;100.00;97620.94;10372907;28;20019;-53
2023/05/29 20:52:06;;;;;;;29.40;18.02;;;;;;;15.10;100.00;97625.53;10369512;28;20147;-50
2023/05/29 20:57:06;;;;;;;29.80;17.30;;;;;;;15.03;100.00;97614.34;10371246;28;20482;-51
2023/05/29 21:02:05;;;;;;;31.88;16.65;;;;;;;15.06;100.00;97609.06;10365218;28;20064;-52
2023/05/29 21:07:04;;;;;;;40.15;19.00;;;;;;;15.03;100.00;97619.56;10367091;28;20154;-50
2023/05/29 21:12:04;;;;;;;25.23;13.68;;;;;;;14.90;100.00;97625.97;10364738;28;20380;-52
2023/05/29 21:17:03;;;;;;;18.58;10.55;;;;;;;14.91;100.00;97622.44;10365364;28;20059;-52
2023/05/29 21:22:02;;;;;;;18.52;11.23;;;;;;;14.81;100.00;97621.78;10365106;28;20141;-50
2023/05/29 21:27:02;;;;;;;23.10;11.40;;;;;;;14.79;100.00;97619.19;10365075;28;20526;-52
2023/05/29 21:32:03;;;;;;;23.08;12.57;;;;;;;14.76;100.00;97616.63;10338932;28;20080;-50
2023/05/29 21:37:04;;;;;;;27.73;13.80;;;;;;;14.71;100.00;97602.81;10363703;28;20117;-52
2023/05/29 21:42:03;;;;;;;20.23;12.02;;;;;;;14.66;100.00;97593.28;10366216;28;20534;-53
2023/05/29 21:47:02;;;;;;;19.35;10.95;;;;;;;14.59;100.00;97593.44;10365294;28;20508;-50
2023/05/29 21:52:01;;;;;;;19.50;11.32;;;;;;;14.56;100.00;97590.00;10357068;28;20562;-52
2023/05/29 21:57:01;;;;;;;19.23;12.02;;;;;;;14.51;100.00;97591.84;10370006;28;20068;-52
2023/05/29 22:02:00;;;;;;;20.25;12.05;;;;;;;14.46;100.00;97585.88;10371513;28;20069;-50
2023/05/29 22:06:59;;;;;;;;;;;;;;;14.34;100.00;97582.59;10368344;28;20033;-54
2023/05/29 22:11:59;;;;;;;18.60;11.73;;;;;;;14.35;100.00;97589.53;10369495;28;20517;-49
2023/05/29 22:16:58;;;;;;;22.60;12.88;;;;;;;14.28;100.00;97582.69;10369742;28;20139;-53
2023/05/29 22:21:57;;;;;;;30.83;14.05;;;;;;;14.22;100.00;97588.06;10369523;28;20032;-51
2023/05/29 22:26:56;;;;;;;;;;;;;;;14.16;100.00;97594.22;10370279;28;20106;-53
2023/05/29 22:31:55;;;;;;;29.90;15.33;;;;;;;14.13;100.00;97601.25;10370309;28;19927;-52
2023/05/29 22:36:56;;;;;;;;;;;;;;;14.08;100.00;97590.06;10371860;28;20041;-51
2023/05/29 22:41:56;;;;;;;30.92;18.02;;;;;;;13.98;100.00;97579.78;10371693;28;20047;-52
2023/05/29 22:46:55;;;;;;;37.80;20.23;;;;;;;13.91;100.00;97583.38;10363118;28;20132;-51
2023/05/29 22:51:56;;;;;;;;;;;;;;;13.86;100.00;97573.88;10362396;28;20049;-52
2023/05/29 22:56:55;;;;;;;77.43;26.67;;;;;;;13.87;100.00;97576.50;10370121;28;19996;-50
2023/05/29 23:01:53;;;;;;;;;;;;;;;13.87;100.00;97579.09;10371392;28;20029;-52